sensor_id;sensor_type;location;lat;lon;timestamp;pressure;altitude;pressure_sealevel;temperature;humidity
73338;BME280;61575;49.908;35.556;2023-12-20T12:39:30;98635.13;;;3.78;100.00
73338;BME280;61575;49.908;35.556;2023-12-20T12:42:32;98625.34;;;4.32;100.00
73338;BME280;61575;49.908;35.556;2023-12-20T12:45:34;98625.47;;;4.66;100.00
73338;BME280;61575;49.908;35.556;2023-12-20T12:48:37;98618.88;;;4.88;100.00
73338;BME280;61575;49.908;35.556;2023-12-20T12:51:39;98613.13;;;5.01;100.00
73338;BME280;61575;49.908;35.556;2023-12-20T12:54:42;98617.81;;;5.07;100.00
73338;BME280;61575;49.908;35.556;2023-12-20T12:57:44;98616.66;;;5.10;100.00
73338;BME280;61575;49.908;35.556;2023-12-20T13:00:47;98616.16;;;5.06;100.00
73338;BME280;61575;49.908;35.556;2023-12-20T13:03:49;98625.84;;;5.15;100.00
73338;BME280;61575;49.908;35.556;2023-12-20T13:06:51;98615.22;;;5.15;100.00
73338;BME280;61575;49.908;35.556;2023-12-20T13:09:53;98625.53;;;5.18;100.00
73338;BME280;61575;49.908;35.556;2023-12-20T13:12:56;98619.69;;;5.15;100.00
73338;BME280;61575;49.908;35.556;2023-12-20T13:15:58;98616.03;;;5.16;100.00
73338;BME280;61575;49.908;35.556;2023-12-20T13:19:00;98616.88;;;5.16;100.00
73338;BME280;61575;49.908;35.556;2023-12-20T13:22:03;98627.53;;;5.16;100.00
73338;BME280;61575;49.908;35.556;2023-12-20T13:25:06;98628.50;;;5.15;100.00
73338;BME280;61575;49.908;35.556;2023-12-20T13:28:08;98631.19;;;5.15;100.00
73338;BME280;61575;49.908;35.556;2023-12-20T13:31:10;98633.00;;;5.15;100.00
73338;BME280;61575;49.908;35.556;2023-12-20T13:34:12;98632.69;;;5.18;100.00
73338;BME280;61575;49.908;35.556;2023-12-20T13:37:15;98637.66;;;5.13;100.00
73338;BME280;61575;49.908;35.556;2023-12-20T13:40:17;98630.34;;;5.15;100.00
73338;BME280;61575;49.908;35.556;2023-12-20T13:43:19;98626.69;;;5.16;100.00
73338;BME280;61575;49.908;35.556;2023-12-20T13:46:23;98628.66;;;5.14;100.00
73338;BME280;61575;49.908;35.556;2023-12-20T13:49:26;98617.19;;;5.13;100.00
73338;BME280;61575;49.908;35.556;2023-12-20T13:52:29;98627.31;;;5.10;100.00
73338;BME280;61575;49.908;35.556;2023-12-20T13:55:31;98618.81;;;5.06;100.00
73338;BME280;61575;49.908;35.556;2023-12-20T13:58:33;98625.97;;;5.05;100.00
73338;BME280;61575;49.908;35.556;2023-12-20T14:01:39;98620.28;;;5.00;100.00
73338;BME280;61575;49.908;35.556;2023-12-20T14:04:41;98612.25;;;4.92;100.00
73338;BME280;61575;49.908;35.556;2023-12-20T14:07:44;98615.22;;;4.89;100.00
73338;BME280;61575;49.908;35.556;2023-12-20T14:10:47;98608.53;;;4.85;100.00
73338;BME280;61575;49.908;35.556;2023-12-20T14:13:51;98606.84;;;4.84;100.00
73338;BME280;61575;49.908;35.556;2023-12-20T14:16:53;98602.97;;;4.79;100.00
73338;BME280;61575;49.908;35.556;2023-12-20T14:19:55;98607.09;;;4.73;100.00
73338;BME280;61575;49.908;35.556;2023-12-20T14:22:58;98614.38;;;4.71;100.00
73338;BME280;61575;49.908;35.556;2023-12-20T14:26:00;98611.19;;;4.67;100.00
73338;BME280;61575;49.908;35.556;2023-12-20T14:29:04;98617.66;;;4.65;100.00
73338;BME280;61575;49.908;35.556;2023-12-20T14:32:06;98614.16;;;4.64;100.00
73338;BME280;61575;49.908;35.556;2023-12-20T14:35:08;98613.63;;;4.61;100.00
73338;BME280;61575;49.908;35.556;2023-12-20T14:38:11;98614.63;;;4.60;100.00
73338;BME280;61575;49.908;35.556;2023-12-20T14:41:17;98609.31;;;4.60;100.00
73338;BME280;61575;49.908;35.556;2023-12-20T14:44:22;98600.34;;;4.61;100.00
73338;BME280;61575;49.908;35.556;2023-12-20T14:47:24;98602.16;;;4.60;100.00
73338;BME280;61575;49.908;35.556;2023-12-20T14:50:27;98601.19;;;4.61;100.00
73338;BME280;61575;49.908;35.556;2023-12-20T14:53:29;98592.22;;;4.62;100.00
73338;BME280;61575;49.908;35.556;2023-12-20T14:56:31;98603.84;;;4.61;100.00
73338;BME280;61575;49.908;35.556;2023-12-20T14:59:33;98598.38;;;4.63;100.00
73338;BME280;61575;49.908;35.556;2023-12-20T15:02:35;98600.34;;;4.61;100.00
73338;BME280;61575;49.908;35.556;2023-12-20T15:05:37;98597.00;;;4.59;100.00
73338;BME280;61575;49.908;35.556;2023-12-20T15:08:39;98596.63;;;4.54;100.00
73338;BME280;61575;49.908;35.556;2023-12-20T15:11:41;98591.84;;;4.57;100.00
73338;BME280;61575;49.908;35.556;2023-12-20T15:14:43;98596.31;;;4.57;100.00
73338;BME280;61575;49.908;35.556;2023-12-20T15:17:46;98597.16;;;4.57;100.00
73338;BME280;61575;49.908;35.556;2023-12-20T15:20:49;98602.94;;;4.53;100.00
73338;BME280;61575;49.908;35.556;2023-12-20T15:23:52;98600.97;;;4.55;100.00
73338;BME280;61575;49.908;35.556;2023-12-20T15:27:07;98591.69;;;4.59;100.00
73338;BME280;61575;49.908;35.556;2023-12-20T15:30:10;98593.66;;;4.57;100.00
73338;BME280;61575;49.908;35.556;2023-12-20T15:33:12;98592.00;;;4.56;100.00
73338;BME280;61575;49.908;35.556;2023-12-20T15:36:14;98587.66;;;4.55;100.00
73338;BME280;61575;49.908;35.556;2023-12-20T15:39:16;98590.47;;;4.53;100.00
73338;BME280;61575;49.908;35.556;2023-12-20T15:42:18;98586.00;;;4.54;100.00
73338;BME280;61575;49.908;35.556;2023-12-20T15:45:21;98570.03;;;4.54;100.00
73338;BME280;61575;49.908;35.556;2023-12-20T15:48:23;98576.34;;;4.53;100.00
73338;BME280;61575;49.908;35.556;2023-12-20T15:51:30;98574.16;;;4.48;100.00
73338;BME280;61575;49.908;35.556;2023-12-20T15:54:33;98563.97;;;4.43;100.00
73338;BME280;61575;49.908;35.556;2023-12-20T15:57:35;98556.63;;;4.37;100.00
73338;BME280;61575;49.908;35.556;2023-12-20T16:00:52;98549.84;;;4.43;100.00
73338;BME280;61575;49.908;35.556;2023-12-20T16:03:54;98560.13;;;4.38;100.00
73338;BME280;61575;49.908;35.556;2023-12-20T16:07:00;98542.50;;;4.37;100.00
73338;BME280;61575;49.908;35.556;2023-12-20T16:10:02;98545.84;;;4.39;100.00
73338;BME280;61575;49.908;35.556;2023-12-20T16:13:05;98542.13;;;4.32;100.00
73338;BME280;61575;49.908;35.556;2023-12-20T16:16:07;98546.16;;;4.36;100.00
73338;BME280;61575;49.908;35.556;2023-12-20T16:19:10;98547.44;;;4.32;100.00
73338;BME280;61575;49.908;35.556;2023-12-20T16:22:12;98545.47;;;4.34;100.00
73338;BME280;61575;49.908;35.556;2023-12-20T16:25:14;98531.72;;;4.38;100.00
73338;BME280;61575;49.908;35.556;2023-12-20T16:28:16;98530.88;;;4.38;100.00
73338;BME280;61575;49.908;35.556;2023-12-20T16:31:19;98534.53;;;4.37;100.00
73338;BME280;61575;49.908;35.556;2023-12-20T16:34:21;98540.69;;;4.37;100.00
73338;BME280;61575;49.908;35.556;2023-12-20T16:37:24;98538.69;;;4.39;100.00
73338;BME280;61575;49.908;35.556;2023-12-20T16:40:26;98531.41;;;4.41;100.00
73338;BME280;61575;49.908;35.556;2023-12-20T16:43:28;98539.38;;;4.41;100.00
73338;BME280;61575;49.908;35.556;2023-12-20T16:46:31;98538.69;;;4.39;100.00
73338;BME280;61575;49.908;35.556;2023-12-20T16:49:33;98547.19;;;4.43;100.00
73338;BME280;61575;49.908;35.556;2023-12-20T16:52:35;98552.06;;;4.48;100.00
73338;BME280;61575;49.908;35.556;2023-12-20T16:55:37;98550.06;;;4.50;100.00
73338;BME280;61575;49.908;35.556;2023-12-20T16:58:40;98549.25;;;4.49;100.00
73338;BME280;61575;49.908;35.556;2023-12-20T17:01:42;98554.78;;;4.56;100.00
73338;BME280;61575;49.908;35.556;2023-12-20T17:04:47;98543.81;;;4.59;100.00
73338;BME280;61575;49.908;35.556;2023-12-20T17:07:50;98551.66;;;4.60;100.00
73338;BME280;61575;49.908;35.556;2023-12-20T17:10:52;98545.84;;;4.65;100.00
73338;BME280;61575;49.908;35.556;2023-12-20T17:13:55;98549.34;;;4.65;100.00
73338;BME280;61575;49.908;35.556;2023-12-20T17:16:59;98542.06;;;4.67;100.00
73338;BME280;61575;49.908;35.556;2023-12-20T17:20:02;98546.06;;;4.71;100.00
73338;BME280;61575;49.908;35.556;2023-12-20T17:23:08;98545.06;;;4.72;100.00
73338;BME280;61575;49.908;35.556;2023-12-20T17:26:11;98543.63;;;4.78;100.00
73338;BME280;61575;49.908;35.556;2023-12-20T17:29:13;98540.50;;;4.83;100.00
73338;BME280;61575;49.908;35.556;2023-12-20T17:32:16;98538.38;;;4.86;100.00
73338;BME280;61575;49.908;35.556;2023-12-20T17:35:18;98537.22;;;4.89;100.00
73338;BME280;61575;49.908;35.556;2023-12-20T17:38:22;98534.78;;;4.95;100.00
73338;BME280;61575;49.908;35.556;2023-12-20T17:41:24;98529.13;;;4.98;100.00
73338;BME280;61575;49.908;35.556;2023-12-20T17:44:26;98526.00;;;5.03;100.00
73338;BME280;61575;49.908;35.556;2023-12-20T17:47:28;98519.53;;;5.05;100.00
73338;BME280;61575;49.908;35.556;2023-12-20T17:50:30;98516.06;;;5.13;100.00
73338;BME280;61575;49.908;35.556;2023-12-20T17:53:33;98507.59;;;5.18;100.00
73338;BME280;61575;49.908;35.556;2023-12-20T17:56:35;98507.28;;;5.21;100.00
73338;BME280;61575;49.908;35.556;2023-12-20T17:59:37;98505.28;;;5.23;100.00
73338;BME280;61575;49.908;35.556;2023-12-20T18:02:41;98500.63;;;5.25;100.00
73338;BME280;61575;49.908;35.556;2023-12-20T18:05:43;98497.66;;;5.28;100.00
73338;BME280;61575;49.908;35.556;2023-12-20T18:08:45;98497.50;;;5.29;100.00
73338;BME280;61575;49.908;35.556;2023-12-20T18:11:48;98508.66;;;5.33;100.00
73338;BME280;61575;49.908;35.556;2023-12-20T18:14:50;98493.34;;;5.35;100.00
73338;BME280;61575;49.908;35.556;2023-12-20T18:17:54;98497.84;;;5.34;100.00
73338;BME280;61575;49.908;35.556;2023-12-20T18:20:56;98487.03;;;5.36;100.00
73338;BME280;61575;49.908;35.556;2023-12-20T18:23:59;98489.38;;;5.39;100.00
73338;BME280;61575;49.908;35.556;2023-12-20T18:27:11;98483.72;;;5.42;100.00
73338;BME280;61575;49.908;35.556;2023-12-20T18:30:14;98479.22;;;5.43;100.00
73338;BME280;61575;49.908;35.556;2023-12-20T18:33:18;98473.56;;;5.46;100.00
73338;BME280;61575;49.908;35.556;2023-12-20T18:36:20;98460.78;;;5.49;100.00
73338;BME280;61575;49.908;35.556;2023-12-20T18:39:22;98453.44;;;5.51;100.00
73338;BME280;61575;49.908;35.556;2023-12-20T18:42:24;98462.78;;;5.55;100.00
73338;BME280;61575;49.908;35.556;2023-12-20T18:45:26;98454.94;;;5.54;100.00
73338;BME280;61575;49.908;35.556;2023-12-20T18:48:29;98452.63;;;5.59;100.00
73338;BME280;61575;49.908;35.556;2023-12-20T18:51:31;98447.13;;;5.60;100.00
73338;BME280;61575;49.908;35.556;2023-12-20T18:54:33;98441.16;;;5.58;100.00
73338;BME280;61575;49.908;35.556;2023-12-20T18:57:35;98446.81;;;5.63;100.00
73338;BME280;61575;49.908;35.556;2023-12-20T19:00:38;98444.97;;;5.64;100.00
73338;BME280;61575;49.908;35.556;2023-12-20T19:03:40;98447.47;;;5.65;100.00
73338;BME280;61575;49.908;35.556;2023-12-20T19:06:42;98436.66;;;5.67;100.00
73338;BME280;61575;49.908;35.556;2023-12-20T19:09:44;98429.16;;;5.70;100.00
73338;BME280;61575;49.908;35.556;2023-12-20T19:12:46;98422.50;;;5.66;100.00
73338;BME280;61575;49.908;35.556;2023-12-20T19:15:48;98425.50;;;5.71;100.00
73338;BME280;61575;49.908;35.556;2023-12-20T19:18:51;98417.53;;;5.71;100.00
73338;BME280;61575;49.908;35.556;2023-12-20T19:21:53;98418.34;;;5.72;100.00
73338;BME280;61575;49.908;35.556;2023-12-20T19:24:56;98418.84;;;5.76;100.00
73338;BME280;61575;49.908;35.556;2023-12-20T19:27:58;98426.69;;;5.77;100.00
73338;BME280;61575;49.908;35.556;2023-12-20T19:31:00;98427.50;;;5.78;100.00
73338;BME280;61575;49.908;35.556;2023-12-20T19:34:03;98417.69;;;5.78;100.00
73338;BME280;61575;49.908;35.556;2023-12-20T19:37:05;98420.34;;;5.78;100.00
73338;BME280;61575;49.908;35.556;2023-12-20T19:40:08;98422.34;;;5.76;100.00
73338;BME280;61575;49.908;35.556;2023-12-20T19:43:10;98416.03;;;5.77;100.00
73338;BME280;61575;49.908;35.556;2023-12-20T19:46:12;98416.84;;;5.78;100.00
73338;BME280;61575;49.908;35.556;2023-12-20T19:49:15;98404.53;;;5.77;100.00
73338;BME280;61575;49.908;35.556;2023-12-20T19:52:17;98408.88;;;5.78;100.00
73338;BME280;61575;49.908;35.556;2023-12-20T19:55:19;98407.69;;;5.80;100.00
73338;BME280;61575;49.908;35.556;2023-12-20T19:58:22;98402.88;;;5.76;100.00
73338;BME280;61575;49.908;35.556;2023-12-20T20:01:24;98403.53;;;5.78;100.00
73338;BME280;61575;49.908;35.556;2023-12-20T20:04:26;98391.22;;;5.77;100.00
73338;BME280;61575;49.908;35.556;2023-12-20T20:07:29;98399.03;;;5.78;100.00
73338;BME280;61575;49.908;35.556;2023-12-20T20:10:31;98399.88;;;5.79;100.00
73338;BME280;61575;49.908;35.556;2023-12-20T20:13:33;98405.38;;;5.77;100.00
73338;BME280;61575;49.908;35.556;2023-12-20T20:16:36;98397.03;;;5.80;100.00
73338;BME280;61575;49.908;35.556;2023-12-20T20:19:39;98396.88;;;5.82;100.00
73338;BME280;61575;49.908;35.556;2023-12-20T20:22:41;98381.88;;;5.81;100.00
73338;BME280;61575;49.908;35.556;2023-12-20T20:25:45;98382.06;;;5.79;100.00
73338;BME280;61575;49.908;35.556;2023-12-20T20:28:47;98375.91;;;5.79;100.00
73338;BME280;61575;49.908;35.556;2023-12-20T20:31:49;98361.75;;;5.78;100.00
73338;BME280;61575;49.908;35.556;2023-12-20T20:35:19;98374.91;;;5.80;100.00
73338;BME280;61575;49.908;35.556;2023-12-20T20:38:25;98379.56;;;5.78;100.00
73338;BME280;61575;49.908;35.556;2023-12-20T20:41:28;98391.22;;;5.77;100.00
73338;BME280;61575;49.908;35.556;2023-12-20T20:44:30;98385.88;;;5.77;100.00
73338;BME280;61575;49.908;35.556;2023-12-20T20:47:32;98384.88;;;5.78;100.00
73338;BME280;61575;49.908;35.556;2023-12-20T20:50:34;98388.72;;;5.75;100.00
73338;BME280;61575;49.908;35.556;2023-12-20T20:53:37;98368.25;;;5.76;100.00
73338;BME280;61575;49.908;35.556;2023-12-20T20:56:39;98367.91;;;5.79;100.00
73338;BME280;61575;49.908;35.556;2023-12-20T20:59:41;98371.75;;;5.76;100.00
73338;BME280;61575;49.908;35.556;2023-12-20T21:02:45;98372.91;;;5.73;100.00
73338;BME280;61575;49.908;35.556;2023-12-20T21:05:47;98365.56;;;5.76;100.00
73338;BME280;61575;49.908;35.556;2023-12-20T21:08:50;98365.41;;;5.77;100.00
73338;BME280;61575;49.908;35.556;2023-12-20T21:11:52;98369.25;;;5.75;100.00
73338;BME280;61575;49.908;35.556;2023-12-20T21:14:54;98365.06;;;5.80;100.00
73338;BME280;61575;49.908;35.556;2023-12-20T21:17:58;98365.91;;;5.81;100.00
73338;BME280;61575;49.908;35.556;2023-12-20T21:21:00;98366.75;;;5.81;100.00
73338;BME280;61575;49.908;35.556;2023-12-20T21:24:02;98361.25;;;5.83;100.00
73338;BME280;61575;49.908;35.556;2023-12-20T21:27:04;98364.75;;;5.83;100.00
73338;BME280;61575;49.908;35.556;2023-12-20T21:30:07;98361.41;;;5.81;100.00
73338;BME280;61575;49.908;35.556;2023-12-20T21:33:11;98356.25;;;5.80;100.00
73338;BME280;61575;49.908;35.556;2023-12-20T21:36:15;98345.41;;;5.81;100.00
73338;BME280;61575;49.908;35.556;2023-12-20T21:39:18;98340.44;;;5.78;100.00
73338;BME280;61575;49.908;35.556;2023-12-20T21:42:26;98338.25;;;5.82;100.00
73338;BME280;61575;49.908;35.556;2023-12-20T21:45:28;98331.28;;;5.81;100.00
73338;BME280;61575;49.908;35.556;2023-12-20T21:48:30;98324.13;;;5.81;100.00
73338;BME280;61575;49.908;35.556;2023-12-20T21:51:32;98308.97;;;5.82;100.00
73338;BME280;61575;49.908;35.556;2023-12-20T21:54:37;98301.31;;;5.79;100.00
73338;BME280;61575;49.908;35.556;2023-12-20T21:57:39;98290.47;;;5.80;100.00
73338;BME280;61575;49.908;35.556;2023-12-20T22:00:41;98311.97;;;5.79;100.00
73338;BME280;61575;49.908;35.556;2023-12-20T22:03:43;98298.81;;;5.77;100.00
73338;BME280;61575;49.908;35.556;2023-12-20T22:06:46;98296.50;;;5.74;100.00
73338;BME280;61575;49.908;35.556;2023-12-20T22:09:48;98302.97;;;5.80;100.00
73338;BME280;61575;49.908;35.556;2023-12-20T22:12:51;98284.66;;;5.77;100.00
73338;BME280;61575;49.908;35.556;2023-12-20T22:15:53;98287.97;;;5.79;100.00
73338;BME280;61575;49.908;35.556;2023-12-20T22:18:56;98293.16;;;5.72;100.00
73338;BME280;61575;49.908;35.556;2023-12-20T22:21:58;98287.00;;;5.71;100.00
73338;BME280;61575;49.908;35.556;2023-12-20T22:25:00;98267.34;;;5.72;100.00
73338;BME280;61575;49.908;35.556;2023-12-20T22:28:03;98261.84;;;5.74;100.00
73338;BME280;61575;49.908;35.556;2023-12-20T22:31:05;98260.84;;;5.75;100.00
73338;BME280;61575;49.908;35.556;2023-12-20T22:34:07;98242.03;;;5.77;100.00
73338;BME280;61575;49.908;35.556;2023-12-20T22:37:10;98244.38;;;5.71;100.00
73338;BME280;61575;49.908;35.556;2023-12-20T22:40:12;98248.72;;;5.72;100.00
73338;BME280;61575;49.908;35.556;2023-12-20T22:43:15;98256.03;;;5.70;100.00
73338;BME280;61575;49.908;35.556;2023-12-20T22:46:17;98258.69;;;5.70;100.00
73338;BME280;61575;49.908;35.556;2023-12-20T22:49:19;98252.06;;;5.66;100.00
73338;BME280;61575;49.908;35.556;2023-12-20T22:52:21;98250.22;;;5.67;100.00
73338;BME280;61575;49.908;35.556;2023-12-20T22:55:24;98249.38;;;5.66;100.00
73338;BME280;61575;49.908;35.556;2023-12-20T22:58:26;98237.72;;;5.67;100.00
73338;BME280;61575;49.908;35.556;2023-12-20T23:01:28;98232.09;;;5.62;100.00
73338;BME280;61575;49.908;35.556;2023-12-20T23:04:30;98240.75;;;5.64;100.00
73338;BME280;61575;49.908;35.556;2023-12-20T23:07:32;98237.25;;;5.64;100.00
73338;BME280;61575;49.908;35.556;2023-12-20T23:10:35;98230.25;;;5.63;100.00
73338;BME280;61575;49.908;35.556;2023-12-20T23:13:37;98217.94;;;5.62;100.00
73338;BME280;61575;49.908;35.556;2023-12-20T23:16:39;98231.25;;;5.62;100.00
73338;BME280;61575;49.908;35.556;2023-12-20T23:19:42;98233.09;;;5.61;100.00
73338;BME280;61575;49.908;35.556;2023-12-20T23:22:44;98234.09;;;5.60;100.00
73338;BME280;61575;49.908;35.556;2023-12-20T23:25:46;98235.75;;;5.61;100.00
73338;BME280;61575;49.908;35.556;2023-12-20T23:28:48;98231.75;;;5.57;100.00
73338;BME280;61575;49.908;35.556;2023-12-20T23:31:50;98233.44;;;5.58;100.00
73338;BME280;61575;49.908;35.556;2023-12-20T23:34:52;98235.44;;;5.56;100.00
73338;BME280;61575;49.908;35.556;2023-12-20T23:38:10;98230.28;;;5.55;100.00
73338;BME280;61575;49.908;35.556;2023-12-20T23:41:12;98247.91;;;5.56;100.00
73338;BME280;61575;49.908;35.556;2023-12-20T23:44:14;98234.94;;;5.53;100.00
73338;BME280;61575;49.908;35.556;2023-12-20T23:47:16;98228.44;;;5.47;100.00
73338;BME280;61575;49.908;35.556;2023-12-20T23:50:18;98247.75;;;5.49;100.00
73338;BME280;61575;49.908;35.556;2023-12-20T23:53:20;98227.63;;;5.47;100.00
73338;BME280;61575;49.908;35.556;2023-12-20T23:56:22;98233.59;;;5.49;100.00
73338;BME280;61575;49.908;35.556;2023-12-20T23:59:38;98232.78;;;5.48;100.00
